Time;durP1;ratioP1;P1;durP2;ratioP2;P2;SDS_P1;SDS_P2;PMS_P1;PMS_P2;Temp;Humidity;BMP_temperature;BMP_pressure;BME280_temperature;BME280_humidity;BME280_pressure;Samples;Min_cycle;Max_cycle;Signal;HPM_P1;HPM_P2
2022/03/28 00:02:07;;;;;;;17.50;3.83;;;;;;;8.85;99.12;102851.56;5011985;28;20030;-66
2022/03/28 00:04:33;;;;;;;25.05;3.70;;;;;;;8.71;99.19;102856.06;5012361;28;20548;-67
2022/03/28 00:06:58;;;;;;;27.50;6.20;;;;;;;8.53;100.00;102852.38;4987796;28;20061;-67
2022/03/28 00:09:24;;;;;;;21.13;4.10;;;;;;;8.58;100.00;102853.56;5007314;28;20101;-67
2022/03/28 00:11:49;;;;;;;21.98;4.60;;;;;;;8.67;99.97;102845.28;5012655;28;20026;-67
2022/03/28 00:14:14;;;;;;;14.45;3.95;;;;;;;8.57;99.47;102844.78;5010753;28;20136;-67
2022/03/28 00:16:40;;;;;;;14.35;4.00;;;;;;;8.66;100.00;102836.50;4993148;28;20073;-67
2022/03/28 00:19:05;;;;;;;22.08;3.83;;;;;;;8.65;99.76;102839.06;5000500;28;20560;-67
2022/03/28 00:21:30;;;;;;;21.98;4.18;;;;;;;8.62;99.88;102847.66;5011190;28;20022;-67
2022/03/28 00:23:56;;;;;;;17.67;3.78;;;;;;;8.56;99.62;102849.91;5012333;28;20484;-67
2022/03/28 00:26:22;;;;;;;17.80;4.03;;;;;;;8.63;100.00;102838.97;5011030;28;20048;-67
2022/03/28 00:28:47;;;;;;;24.98;4.20;;;;;;;8.49;99.41;102843.44;5012268;28;20064;-67
2022/03/28 00:31:13;;;;;;;20.65;3.75;;;;;;;8.72;99.11;102838.56;5008878;28;20033;-67
2022/03/28 00:33:38;;;;;;;17.95;4.03;;;;;;;8.64;98.27;102832.91;5011715;28;20097;-67
2022/03/28 00:36:04;;;;;;;20.77;3.78;;;;;;;8.51;98.16;102838.28;5011170;28;20500;-67
2022/03/28 00:38:30;;;;;;;21.35;4.32;;;;;;;8.45;98.21;102833.59;5029816;28;20041;-67
2022/03/28 00:40:55;;;;;;;22.83;4.40;;;;;;;8.31;99.16;102823.97;5022383;28;20030;-67
2022/03/28 00:43:21;;;;;;;19.08;4.18;;;;;;;8.19;99.69;102824.16;5012357;28;20036;-67
2022/03/28 00:45:46;;;;;;;23.42;3.97;;;;;;;8.13;100.00;102822.09;5012123;28;20033;-67
2022/03/28 00:48:12;;;;;;;20.20;4.70;;;;;;;8.02;100.00;102817.94;4994194;28;20056;-67
2022/03/28 00:50:38;;;;;;;24.77;4.18;;;;;;;8.09;99.85;102815.75;5009695;28;20014;-67
2022/03/28 00:53:05;;;;;;;26.95;4.22;;;;;;;8.15;99.81;102814.31;5011263;28;20096;-67
2022/03/28 00:55:31;;;;;;;29.98;4.53;;;;;;;8.08;100.00;102819.22;5008495;28;20026;-67
2022/03/28 00:57:57;;;;;;;16.38;3.88;;;;;;;8.14;99.78;102815.13;5009818;28;20029;-67
2022/03/28 01:00:22;;;;;;;22.60;4.00;;;;;;;8.16;100.00;102803.00;4993221;28;20037;-67
2022/03/28 01:02:48;;;;;;;20.25;3.90;;;;;;;8.08;99.73;102803.47;5011809;28;20026;-67
2022/03/28 01:05:13;;;;;;;17.15;3.58;;;;;;;8.16;99.73;102805.63;5011674;28;20017;-67
2022/03/28 01:07:40;;;;;;;19.73;3.90;;;;;;;8.03;99.67;102796.13;4993949;28;20063;-67
2022/03/28 01:10:07;;;;;;;22.70;3.97;;;;;;;8.01;100.00;102790.81;5012223;28;20080;-67
2022/03/28 01:12:32;;;;;;;17.67;4.38;;;;;;;8.05;100.00;102790.16;5011870;28;20041;-67
2022/03/28 01:14:59;;;;;;;23.48;4.53;;;;;;;8.03;100.00;102781.31;5004734;28;20037;-67
2022/03/28 01:20:09;;;;;;;20.30;4.15;;;;;;;8.06;100.00;102781.50;5011827;28;20092;-67
2022/03/28 01:22:35;;;;;;;19.77;4.15;;;;;;;8.03;100.00;102788.25;5011820;28;20474;-67
2022/03/28 01:25:03;;;;;;;27.10;5.00;;;;;;;7.91;100.00;102781.50;5011421;28;20076;-67
2022/03/28 01:27:28;;;;;;;19.35;4.07;;;;;;;7.83;100.00;102779.25;4998009;28;20045;-67
2022/03/28 01:29:55;;;;;;;19.30;3.38;;;;;;;7.79;100.00;102780.78;5021064;28;20026;-66
2022/03/28 01:32:20;;;;;;;16.92;3.65;;;;;;;7.74;100.00;102772.63;5023598;28;20052;-67
2022/03/28 01:34:45;;;;;;;20.35;3.75;;;;;;;7.79;100.00;102772.03;5016656;28;20030;-67
2022/03/28 01:37:11;;;;;;;22.65;4.65;;;;;;;7.75;100.00;102771.81;5008486;28;20033;-67
2022/03/28 01:39:36;;;;;;;17.27;4.70;;;;;;;7.48;100.00;102771.09;5012837;28;20091;-67
2022/03/28 01:42:02;;;;;;;22.30;4.88;;;;;;;7.45;100.00;102773.53;5017725;28;20025;-67
2022/03/28 01:44:27;;;;;;;28.17;4.57;;;;;;;7.65;100.00;102769.50;5028850;28;20083;-67
2022/03/28 01:46:53;;;;;;;22.95;4.22;;;;;;;7.74;100.00;102767.38;5014956;28;20022;-67
2022/03/28 01:49:19;;;;;;;17.60;3.72;;;;;;;7.51;100.00;102762.50;5011886;28;20400;-67
2022/03/28 01:51:46;;;;;;;18.90;4.05;;;;;;;7.35;100.00;102756.34;5013368;28;20085;-67
2022/03/28 01:54:12;;;;;;;19.30;4.10;;;;;;;7.67;100.00;102754.75;5014973;28;20115;-67
2022/03/28 01:56:40;;;;;;;19.30;3.97;;;;;;;7.63;99.83;102747.50;5014662;28;20097;-67
2022/03/28 01:59:06;;;;;;;17.55;4.22;;;;;;;7.60;100.00;102742.09;5015339;28;20098;-67
2022/03/28 02:01:32;;;;;;;18.08;4.10;;;;;;;7.51;100.00;102749.41;5025526;28;20127;-67
2022/03/28 02:03:58;;;;;;;24.02;3.90;;;;;;;7.50;100.00;102751.13;5017985;28;20026;-67
2022/03/28 02:06:23;;;;;;;20.25;4.22;;;;;;;7.44;100.00;102745.53;5013106;28;20029;-67
2022/03/28 02:08:49;;;;;;;24.75;3.92;;;;;;;7.32;100.00;102740.44;5007837;28;20366;-67
2022/03/28 02:11:14;;;;;;;18.95;4.60;;;;;;;7.28;100.00;102742.78;5014735;28;20026;-67
2022/03/28 02:13:40;;;;;;;22.08;4.13;;;;;;;7.25;100.00;102744.41;5014242;28;20041;-68
2022/03/28 02:16:06;;;;;;;28.38;3.83;;;;;;;7.21;100.00;102736.28;5014520;28;20113;-67
2022/03/28 02:18:31;;;;;;;20.42;4.35;;;;;;;7.38;100.00;102745.13;5013424;28;20120;-67
2022/03/28 02:20:57;;;;;;;15.23;4.10;;;;;;;7.33;100.00;102737.00;5017384;28;20426;-66
2022/03/28 02:23:22;;;;;;;21.02;4.10;;;;;;;7.24;100.00;102733.84;5014022;28;20088;-67
2022/03/28 02:25:48;;;;;;;19.55;4.57;;;;;;;7.18;100.00;102730.84;5012965;28;20048;-67
2022/03/28 02:28:13;;;;;;;22.73;4.35;;;;;;;7.23;100.00;102734.63;5012267;28;20113;-67
2022/03/28 02:30:39;;;;;;;18.38;3.92;;;;;;;7.19;100.00;102732.63;5014821;28;20013;-66
2022/03/28 02:33:05;;;;;;;13.73;3.50;;;;;;;7.04;100.00;102725.69;5014073;28;20029;-67
2022/03/28 02:35:30;;;;;;;18.88;3.60;;;;;;;7.02;100.00;102721.16;5016452;28;20053;-67
2022/03/28 02:38:01;;;;;;;19.23;3.53;;;;;;;7.03;100.00;102716.00;5009769;28;20053;-66
2022/03/28 02:40:30;;;;;;;12.35;3.40;;;;;;;7.07;100.00;102718.00;5015008;28;20101;-67
2022/03/28 02:42:59;;;;;;;25.67;6.63;;;;;;;6.98;100.00;102709.59;5014185;28;20458;-67
2022/03/28 02:45:30;;;;;;;27.33;5.07;;;;;;;7.00;100.00;102705.38;5013504;28;20409;-67
2022/03/28 02:47:56;;;;;;;18.35;4.25;;;;;;;6.84;100.00;102703.50;5012787;28;20084;-67
2022/03/28 02:50:21;;;;;;;19.00;4.57;;;;;;;7.00;100.00;102702.75;5015902;28;20842;-67
2022/03/28 02:52:47;;;;;;;17.77;3.92;;;;;;;6.89;100.00;102693.31;5012981;28;20039;-67
2022/03/28 02:55:12;;;;;;;27.42;4.95;;;;;;;6.75;100.00;102692.47;5000850;28;20034;-67
2022/03/28 02:57:38;;;;;;;29.33;5.60;;;;;;;6.74;100.00;102696.81;5018177;28;20447;-67
2022/03/28 03:00:07;;;;;;;22.13;5.95;;;;;;;6.65;100.00;102691.00;5012919;28;20081;-67
2022/03/28 03:02:33;;;;;;;22.95;4.22;;;;;;;6.65;100.00;102685.75;5010177;28;20034;-67
2022/03/28 03:04:59;;;;;;;26.90;5.60;;;;;;;6.57;100.00;102687.00;5016458;28;20045;-66
2022/03/28 03:07:24;;;;;;;23.27;4.63;;;;;;;6.59;100.00;102687.97;5013275;28;20442;-66
2022/03/28 03:09:49;;;;;;;20.55;4.57;;;;;;;6.48;100.00;102679.47;5015123;28;20076;-67
2022/03/28 03:12:15;;;;;;;19.48;4.78;;;;;;;6.44;100.00;102674.84;5013758;28;20021;-67
2022/03/28 03:14:40;;;;;;;16.73;5.45;;;;;;;6.45;100.00;102678.38;5012612;28;20117;-66
2022/03/28 03:17:05;;;;;;;16.52;4.28;;;;;;;6.51;100.00;102677.06;5018221;28;20104;-67
2022/03/28 03:19:30;;;;;;;25.13;4.85;;;;;;;6.53;100.00;102679.78;5012143;28;20358;-67
2022/03/28 03:21:56;;;;;;;18.40;4.82;;;;;;;6.56;100.00;102672.09;5002182;28;20030;-67
2022/03/28 03:24:21;;;;;;;19.67;4.68;;;;;;;6.51;100.00;102669.22;5012748;28;20022;-67
2022/03/28 03:26:46;;;;;;;26.73;4.85;;;;;;;6.71;100.00;102675.66;5012826;28;20057;-66
2022/03/28 03:29:12;;;;;;;22.63;5.00;;;;;;;6.64;100.00;102663.03;5012345;28;20036;-66
2022/03/28 03:31:39;;;;;;;19.40;4.13;;;;;;;6.60;100.00;102666.25;5011724;28;20041;-67
2022/03/28 03:34:05;;;;;;;23.90;4.88;;;;;;;6.52;100.00;102659.66;5011638;28;20095;-67
2022/03/28 03:36:30;;;;;;;18.63;4.75;;;;;;;6.64;100.00;102660.41;5023296;28;20638;-68
2022/03/28 03:38:56;;;;;;;21.23;4.82;;;;;;;6.52;100.00;102655.31;5013272;28;20021;-67
2022/03/28 03:41:21;;;;;;;21.52;4.78;;;;;;;6.61;100.00;102657.63;5013103;28;20018;-66
2022/03/28 03:43:46;;;;;;;25.10;6.03;;;;;;;6.51;100.00;102655.22;5012994;28;20030;-66
2022/03/28 03:46:12;;;;;;;25.92;5.68;;;;;;;6.50;100.00;102651.72;5013236;28;20037;-67
2022/03/28 03:48:37;;;;;;;27.42;6.18;;;;;;;6.43;100.00;102646.91;5011334;28;20044;-67
2022/03/28 03:51:02;;;;;;;22.92;5.15;;;;;;;6.49;100.00;102652.50;4999356;28;20021;-67
2022/03/28 03:53:28;;;;;;;20.38;5.68;;;;;;;6.65;100.00;102650.88;5016060;28;20040;-67
2022/03/28 03:55:53;;;;;;;23.77;6.43;;;;;;;6.62;100.00;102638.50;5012359;28;20029;-67
2022/03/28 03:58:19;;;;;;;28.10;5.38;;;;;;;6.39;100.00;102637.06;5011115;28;20050;-67
2022/03/28 04:00:44;;;;;;;15.60;6.65;;;;;;;6.40;100.00;102642.41;5014869;28;20032;-67
2022/03/28 04:03:09;;;;;;;20.02;5.45;;;;;;;6.42;100.00;102639.88;5014596;28;20033;-67
2022/03/28 04:05:37;;;;;;;18.95;6.22;;;;;;;6.44;100.00;102638.25;5022748;28;20021;-67
2022/03/28 04:08:06;;;;;;;17.92;6.15;;;;;;;6.62;100.00;102633.28;5013813;28;20036;-67
2022/03/28 04:10:34;;;;;;;19.23;6.05;;;;;;;6.45;100.00;102634.81;5012022;28;20370;-67
2022/03/28 04:13:00;;;;;;;22.38;6.28;;;;;;;6.39;100.00;102629.22;5008377;28;20105;-67
2022/03/28 04:15:26;;;;;;;23.70;7.22;;;;;;;6.24;100.00;102623.94;5012662;28;20121;-67
2022/03/28 04:17:52;;;;;;;19.38;6.18;;;;;;;6.18;100.00;102623.53;5021022;28;20100;-67
2022/03/28 04:20:17;;;;;;;18.17;6.00;;;;;;;6.22;100.00;102628.16;4994274;28;20478;-67
2022/03/28 04:22:45;;;;;;;16.45;5.70;;;;;;;6.10;100.00;102630.00;5009614;28;20060;-66
2022/03/28 04:25:11;;;;;;;17.15;5.65;;;;;;;6.05;100.00;102633.22;5010481;28;20033;-67
2022/03/28 04:27:37;;;;;;;22.95;6.22;;;;;;;6.21;100.00;102644.63;5010484;28;20484;-67
2022/03/28 04:30:07;;;;;;;20.45;6.80;;;;;;;6.06;100.00;102642.88;5015096;28;20037;-67
2022/03/28 04:32:34;;;;;;;23.63;7.03;;;;;;;6.03;100.00;102644.38;5009463;28;20442;-66
2022/03/28 04:34:59;;;;;;;19.65;6.22;;;;;;;5.95;100.00;102630.78;5012214;28;20113;-66
2022/03/28 04:37:25;;;;;;;20.02;7.32;;;;;;;6.08;100.00;102627.28;5025437;28;20420;-66
2022/03/28 04:39:50;;;;;;;13.65;5.82;;;;;;;6.05;100.00;102643.69;5010634;28;20034;-67
2022/03/28 04:42:15;;;;;;;17.55;5.85;;;;;;;6.00;100.00;102638.97;5011536;28;20025;-67
2022/03/28 04:44:41;;;;;;;24.45;6.78;;;;;;;6.00;100.00;102638.97;5015540;28;20038;-67
2022/03/28 04:47:07;;;;;;;18.00;6.50;;;;;;;5.98;100.00;102644.09;5022714;28;20025;-67
2022/03/28 04:49:32;;;;;;;22.63;6.72;;;;;;;5.94;100.00;102639.44;5011563;28;20049;-67
2022/03/28 04:51:58;;;;;;;18.60;8.02;;;;;;;5.94;100.00;102629.00;5012236;28;20037;-67
2022/03/28 04:54:23;;;;;;;25.55;7.45;;;;;;;5.95;100.00;102633.38;5022104;28;20100;-67
2022/03/28 04:56:48;;;;;;;24.83;8.32;;;;;;;6.03;100.00;102637.44;5008397;28;20129;-67
2022/03/28 04:59:14;;;;;;;21.33;8.40;;;;;;;5.97;100.00;102628.25;4994322;28;20063;-67
2022/03/28 05:01:39;;;;;;;27.05;10.07;;;;;;;6.29;100.00;102619.00;5011631;28;20032;-67
2022/03/28 05:04:05;;;;;;;19.85;9.48;;;;;;;6.16;100.00;102604.22;5014334;28;20041;-67
2022/03/28 05:06:30;;;;;;;22.67;8.80;;;;;;;6.26;100.00;102613.56;5016190;28;20109;-67
2022/03/28 05:08:55;;;;;;;26.15;9.35;;;;;;;6.22;100.00;102604.63;5015837;28;20037;-67
2022/03/28 05:11:22;;;;;;;27.60;9.50;;;;;;;6.19;100.00;102594.00;5018144;28;20033;-67
2022/03/28 05:13:51;;;;;;;19.60;8.63;;;;;;;6.15;100.00;102594.59;5027465;28;20440;-67
2022/03/28 05:16:17;;;;;;;27.20;10.85;;;;;;;6.11;100.00;102600.44;5015352;28;20030;-67
2022/03/28 05:18:43;;;;;;;24.67;10.40;;;;;;;6.03;100.00;102597.34;5015221;28;20033;-66
2022/03/28 05:21:08;;;;;;;28.02;11.80;;;;;;;6.02;100.00;102599.06;5015914;28;20025;-67
2022/03/28 05:23:34;;;;;;;24.42;10.80;;;;;;;5.97;100.00;102603.06;5012846;28;20502;-67
2022/03/28 05:26:00;;;;;;;26.45;11.57;;;;;;;5.89;100.00;102602.56;5014464;28;20026;-67
2022/03/28 05:28:25;;;;;;;45.30;13.95;;;;;;;5.93;100.00;102601.06;5014653;28;20053;-66
2022/03/28 05:30:51;;;;;;;35.88;13.25;;;;;;;5.98;100.00;102598.75;5017003;28;20022;-67
2022/03/28 05:33:17;;;;;;;45.65;12.50;;;;;;;5.96;100.00;102601.22;5015227;28;20085;-66
2022/03/28 05:35:44;;;;;;;35.28;13.65;;;;;;;6.04;100.00;102604.38;5021912;28;20083;-67
2022/03/28 05:38:09;;;;;;;46.30;14.57;;;;;;;5.93;100.00;102606.28;5029959;28;20084;-71
2022/03/28 05:40:35;;;;;;;22.20;13.48;;;;;;;6.07;100.00;102605.47;5018006;28;20022;-66
2022/03/28 05:43:01;;;;;;;41.00;15.20;;;;;;;6.07;100.00;102591.50;5018384;28;20037;-67
2022/03/28 05:45:27;;;;;;;42.70;16.10;;;;;;;6.12;100.00;102597.00;5016659;28;20022;-68
2022/03/28 05:47:52;;;;;;;45.05;14.40;;;;;;;6.13;100.00;102599.75;5014495;28;20446;-67
2022/03/28 05:50:17;;;;;;;86.53;15.05;;;;;;;6.04;100.00;102596.53;5015236;28;20068;-67
2022/03/28 05:52:43;;;;;;;37.97;16.85;;;;;;;6.08;100.00;102598.53;5014878;28;20034;-67
2022/03/28 05:55:08;;;;;;;46.78;15.45;;;;;;;6.22;100.00;102592.44;5014883;28;20097;-67
2022/03/28 05:57:34;;;;;;;52.38;16.08;;;;;;;6.28;100.00;102588.41;5014806;28;20034;-76
2022/03/28 05:59:59;;;;;;;33.72;17.13;;;;;;;6.39;100.00;102590.91;5014417;28;20026;-68
2022/03/28 06:02:24;;;;;;;43.47;16.90;;;;;;;6.48;100.00;102581.81;5013250;28;20140;-67
2022/03/28 06:04:50;;;;;;;36.90;16.13;;;;;;;6.32;100.00;102579.97;5013638;28;20030;-67
2022/03/28 06:07:16;;;;;;;30.60;15.65;;;;;;;6.40;100.00;102587.47;5006050;28;20287;-68
2022/03/28 06:09:41;;;;;;;120.13;15.75;;;;;;;6.17;100.00;102583.44;5014342;28;20378;-68
2022/03/28 06:12:08;;;;;;;41.05;16.33;;;;;;;6.25;100.00;102583.91;5018447;28;20545;-68
2022/03/28 06:14:33;;;;;;;100.25;19.08;;;;;;;6.14;100.00;102582.34;4995662;28;20468;-70
2022/03/28 06:16:58;;;;;;;37.47;17.15;;;;;;;6.30;100.00;102592.94;4993860;28;20069;-68
2022/03/28 06:19:23;;;;;;;36.03;15.93;;;;;;;6.31;100.00;102589.53;5012254;28;20104;-69
2022/03/28 06:21:49;;;;;;;39.03;17.25;;;;;;;6.45;100.00;102589.47;5013390;28;20033;-69
2022/03/28 06:24:14;;;;;;;34.38;15.50;;;;;;;6.55;100.00;102590.13;5013809;28;20053;-69
2022/03/28 06:26:39;;;;;;;37.50;15.65;;;;;;;6.62;100.00;102583.56;5012660;28;20026;-69
2022/03/28 06:29:05;;;;;;;38.95;15.88;;;;;;;6.64;100.00;102571.47;5010695;28;22333;-69
2022/03/28 06:31:30;;;;;;;38.38;16.25;;;;;;;6.43;100.00;102580.63;5013745;28;20129;-69
2022/03/28 06:34:01;;;;;;;44.20;17.48;;;;;;;6.44;100.00;102579.81;5012384;28;20030;-68
2022/03/28 06:36:30;;;;;;;42.88;16.45;;;;;;;6.33;100.00;102582.66;5013267;28;20477;-67
2022/03/28 06:38:56;;;;;;;44.47;16.73;;;;;;;6.40;100.00;102578.72;5012534;28;20489;-67
2022/03/28 06:41:22;;;;;;;48.17;17.40;;;;;;;6.37;100.00;102579.44;5013305;28;20018;-67
2022/03/28 06:43:47;;;;;;;51.53;14.88;;;;;;;6.41;100.00;102583.16;5013442;28;20034;-67
2022/03/28 06:46:13;;;;;;;31.13;13.73;;;;;;;6.51;100.00;102577.69;4995215;28;20122;-68
2022/03/28 06:48:39;;;;;;;35.53;13.85;;;;;;;6.34;100.00;102578.34;5012798;28;20036;-68
2022/03/28 06:51:06;;;;;;;44.17;13.75;;;;;;;6.25;100.00;102583.91;5014188;28;20018;-69
2022/03/28 06:53:32;;;;;;;34.88;15.38;;;;;;;6.32;100.00;102575.66;5013616;28;20076;-68
2022/03/28 06:55:58;;;;;;;27.30;14.15;;;;;;;6.46;100.00;102586.03;5013234;28;20049;-69
2022/03/28 06:58:23;;;;;;;28.35;13.73;;;;;;;6.57;100.00;102579.75;5013510;28;20030;-69
2022/03/28 07:00:49;;;;;;;28.52;13.25;;;;;;;6.65;100.00;102573.28;5013079;28;20025;-69
2022/03/28 07:03:15;;;;;;;25.55;12.55;;;;;;;6.67;100.00;102565.53;5018380;28;20029;-69
2022/03/28 07:05:40;;;;;;;32.72;12.32;;;;;;;6.78;100.00;102564.44;5014468;28;20431;-69
2022/03/28 07:08:08;;;;;;;48.13;13.10;;;;;;;6.69;100.00;102566.53;5013904;28;20030;-69
2022/03/28 07:10:33;;;;;;;59.60;13.25;;;;;;;6.80;100.00;102557.59;4996883;28;20112;-69
2022/03/28 07:12:59;;;;;;;33.80;14.02;;;;;;;6.93;100.00;102561.84;5025842;28;20104;-69
2022/03/28 07:15:26;;;;;;;26.80;13.27;;;;;;;6.78;100.00;102559.22;5032975;28;20501;-68
2022/03/28 07:17:57;;;;;;;27.65;13.38;;;;;;;6.64;100.00;102567.97;5013209;28;20042;-69
2022/03/28 07:20:26;;;;;;;35.40;13.82;;;;;;;6.73;100.00;102565.91;5013761;28;20029;-69
2022/03/28 07:22:52;;;;;;;25.33;13.10;;;;;;;6.70;100.00;102564.00;5013473;28;20018;-68
2022/03/28 07:25:18;;;;;;;28.17;12.18;;;;;;;6.82;100.00;102557.69;5012988;28;20381;-68
2022/03/28 07:27:44;;;;;;;20.25;11.40;;;;;;;6.92;100.00;102554.81;5013940;28;20034;-68
2022/03/28 07:30:10;;;;;;;26.60;11.23;;;;;;;6.75;100.00;102556.41;5013497;28;20030;-68
2022/03/28 07:32:37;;;;;;;24.95;11.23;;;;;;;6.64;100.00;102558.38;5010163;28;20026;-68
2022/03/28 07:35:03;;;;;;;19.35;11.07;;;;;;;6.73;100.00;102555.44;5012312;28;20030;-67
2022/03/28 07:37:28;;;;;;;20.60;11.65;;;;;;;6.84;100.00;102556.97;5013138;28;20036;-68
2022/03/28 07:39:54;;;;;;;22.35;10.80;;;;;;;6.89;100.00;102555.53;5012141;28;20430;-68
2022/03/28 07:42:20;;;;;;;20.45;11.05;;;;;;;6.95;100.00;102557.59;5013294;28;20048;-67
2022/03/28 07:44:45;;;;;;;18.15;10.13;;;;;;;7.07;100.00;102555.72;5011136;28;20125;-68
2022/03/28 07:47:11;;;;;;;17.73;9.80;;;;;;;7.02;100.00;102551.91;5012710;28;20033;-68
2022/03/28 07:49:38;;;;;;;21.02;9.52;;;;;;;7.30;100.00;102552.63;5012475;28;20026;-69
2022/03/28 07:52:06;;;;;;;17.52;10.15;;;;;;;7.22;100.00;102550.47;5001778;28;20358;-68
2022/03/28 07:54:32;;;;;;;18.10;9.38;;;;;;;7.23;100.00;102547.03;5013369;28;20353;-69
2022/03/28 07:56:58;;;;;;;21.80;9.93;;;;;;;7.31;100.00;102544.88;5012933;28;20029;-68
2022/03/28 07:59:23;;;;;;;20.05;10.57;;;;;;;7.34;100.00;102547.66;5019705;28;20084;-69
2022/03/28 08:01:50;;;;;;;18.33;9.60;;;;;;;7.50;100.00;102553.75;5011024;28;20025;-68
2022/03/28 08:04:15;;;;;;;16.90;10.65;;;;;;;7.49;100.00;102554.56;4995451;28;20038;-68
2022/03/28 08:06:40;;;;;;;20.60;9.85;;;;;;;7.36;100.00;102553.88;5012089;28;20108;-70
2022/03/28 08:09:06;;;;;;;19.20;10.10;;;;;;;7.58;100.00;102553.41;5011979;28;20036;-67
2022/03/28 08:11:31;;;;;;;21.75;10.07;;;;;;;7.68;100.00;102552.19;5012110;28;20050;-67
2022/03/28 08:13:57;;;;;;;25.02;10.52;;;;;;;7.78;100.00;102547.47;5012257;28;20030;-67
2022/03/28 08:16:22;;;;;;;18.38;10.40;;;;;;;7.86;100.00;102546.16;5012181;28;20087;-68
2022/03/28 08:18:47;;;;;;;25.58;11.05;;;;;;;7.41;100.00;102549.81;5011385;28;20029;-67
2022/03/28 08:21:13;;;;;;;20.83;10.60;;;;;;;7.45;100.00;102549.97;5011530;28;20025;-67
2022/03/28 08:23:39;;;;;;;26.63;11.48;;;;;;;7.40;100.00;102542.75;5018464;28;20533;-68
2022/03/28 08:26:05;;;;;;;23.88;11.13;;;;;;;7.72;100.00;102540.16;5011926;28;20117;-67
2022/03/28 08:28:31;;;;;;;22.65;11.30;;;;;;;7.76;100.00;102540.41;5012442;28;20057;-68
2022/03/28 08:30:57;;;;;;;21.42;11.43;;;;;;;7.78;100.00;102534.34;5011114;28;20076;-68
2022/03/28 08:33:22;;;;;;;21.02;11.43;;;;;;;7.90;100.00;102542.88;5011382;28;20029;-68
2022/03/28 08:35:47;;;;;;;23.63;11.25;;;;;;;8.00;100.00;102539.94;5013048;28;20060;-66
2022/03/28 08:38:13;;;;;;;18.90;10.77;;;;;;;8.22;100.00;102530.59;5012861;28;20053;-66
2022/03/28 08:40:41;;;;;;;19.35;11.88;;;;;;;8.27;100.00;102529.13;5019356;28;20025;-66
2022/03/28 08:43:08;;;;;;;23.55;12.20;;;;;;;7.85;100.00;102529.50;5023859;28;20029;-66
2022/03/28 08:45:36;;;;;;;21.50;12.23;;;;;;;8.05;100.00;102530.59;5028469;28;20163;-66
2022/03/28 08:48:02;;;;;;;23.35;11.50;;;;;;;7.93;100.00;102522.09;5014429;28;20049;-66
2022/03/28 08:50:28;;;;;;;18.13;10.60;;;;;;;8.30;100.00;102524.03;5018236;28;20029;-66
2022/03/28 08:52:53;;;;;;;22.27;11.48;;;;;;;8.46;100.00;102519.66;5011525;28;20076;-66
2022/03/28 08:55:19;;;;;;;17.50;10.65;;;;;;;8.69;100.00;102513.88;5012884;28;20029;-66
2022/03/28 08:57:44;;;;;;;22.83;10.73;;;;;;;8.66;100.00;102521.59;5009869;28;20060;-66
2022/03/28 09:00:10;;;;;;;21.25;10.27;;;;;;;8.77;100.00;102514.25;4993208;28;20030;-66
2022/03/28 09:02:45;;;;;;;19.58;9.98;;;;;;;8.90;100.00;102510.56;5010033;28;20084;-67
2022/03/28 09:05:11;;;;;;;22.58;10.85;;;;;;;8.84;100.00;102510.22;4992730;28;20026;-66
2022/03/28 09:07:37;;;;;;;16.95;10.45;;;;;;;9.08;100.00;102514.06;4999191;28;20021;-66
2022/03/28 09:10:12;;;;;;;22.20;11.38;;;;;;;9.36;100.00;102499.69;5012509;28;20551;-66
2022/03/28 09:12:55;;;;;;;22.58;11.05;;;;;;;9.52;100.00;102505.66;5012294;28;20025;-66
2022/03/28 09:15:20;;;;;;;21.40;11.45;;;;;;;9.36;100.00;102504.00;5009214;28;20108;-66
2022/03/28 09:17:54;;;;;;;17.80;10.95;;;;;;;9.42;100.00;102509.59;5017354;28;20124;-66
2022/03/28 09:20:21;;;;;;;23.70;11.35;;;;;;;9.57;100.00;102505.03;5010921;28;20045;-66
2022/03/28 09:22:47;;;;;;;19.05;10.68;;;;;;;9.73;100.00;102505.78;5010843;28;20434;-66
2022/03/28 09:25:12;;;;;;;24.67;10.50;;;;;;;9.87;100.00;102498.53;5011330;28;20060;-66
2022/03/28 09:27:41;;;;;;;17.48;11.30;;;;;;;9.83;100.00;102499.22;5012030;28;20065;-66
2022/03/28 09:30:11;;;;;;;23.65;12.05;;;;;;;9.82;100.00;102495.72;5011153;28;20033;-66
2022/03/28 09:32:44;;;;;;;23.98;12.68;;;;;;;10.29;100.00;102488.16;5013294;28;20463;-66
2022/03/28 09:35:19;;;;;;;23.60;11.75;;;;;;;10.28;100.00;102491.59;5000216;28;20030;-66
2022/03/28 09:37:51;;;;;;;28.08;12.82;;;;;;;10.21;99.66;102494.81;5009860;28;20372;-66
2022/03/28 09:40:39;;;;;;;23.73;12.40;;;;;;;9.95;98.76;102489.25;5011607;28;20030;-66
2022/03/28 09:43:16;;;;;;;22.67;12.15;;;;;;;9.96;100.00;102488.44;5011426;28;20101;-66
2022/03/28 09:45:43;;;;;;;24.05;12.02;;;;;;;10.41;100.00;102483.47;5011379;28;20152;-66
2022/03/28 09:48:11;;;;;;;17.30;11.93;;;;;;;10.17;99.46;102477.97;5013822;28;20032;-66
2022/03/28 09:50:42;;;;;;;27.42;13.23;;;;;;;10.61;98.85;102478.16;5029750;28;20477;-66
2022/03/28 09:53:15;;;;;;;25.40;12.45;;;;;;;10.58;97.93;102465.78;5016335;28;20113;-66
2022/03/28 09:55:46;;;;;;;26.95;12.05;;;;;;;11.19;97.12;102466.53;5015481;28;20030;-66
2022/03/28 09:58:30;;;;;;;25.08;12.13;;;;;;;11.25;94.92;102463.22;5015162;28;20033;-66
2022/03/28 10:00:55;;;;;;;;;;;;;;;11.96;93.61;102464.25;5015199;28;20061;-66
2022/03/28 10:03:23;;;;;;;21.65;12.05;;;;;;;12.46;91.26;102456.31;5015748;28;20338;-66
2022/03/28 10:05:49;;;;;;;21.85;11.98;;;;;;;12.54;89.75;102458.34;5015110;28;20037;-66
2022/03/28 10:08:14;;;;;;;21.25;10.85;;;;;;;12.55;90.75;102450.47;5015231;28;20108;-67
2022/03/28 10:10:40;;;;;;;33.65;12.88;;;;;;;12.40;90.67;102458.75;5013348;28;20101;-67
2022/03/28 10:13:06;;;;;;;20.20;12.43;;;;;;;12.60;88.75;102453.25;4996417;28;20038;-67
2022/03/28 10:15:32;;;;;;;29.75;12.60;;;;;;;12.38;89.32;102446.34;5015587;28;20029;-67
2022/03/28 10:17:58;;;;;;;23.92;12.18;;;;;;;12.29;89.26;102446.94;5015417;28;20104;-67
2022/03/28 10:20:24;;;;;;;33.10;11.93;;;;;;;12.57;89.60;102447.88;5015231;28;20470;-66
2022/03/28 10:22:53;;;;;;;21.58;12.23;;;;;;;12.48;88.72;102444.06;5015362;28;20665;-67
2022/03/28 10:25:22;;;;;;;25.08;12.20;;;;;;;12.93;88.05;102431.47;5014582;28;20101;-66
2022/03/28 10:27:50;;;;;;;24.77;11.95;;;;;;;13.21;87.17;102432.31;5013822;28;20041;-66
2022/03/28 10:30:27;;;;;;;22.90;12.38;;;;;;;13.05;86.68;102428.28;5014367;28;20038;-66
2022/03/28 10:33:11;;;;;;;19.50;11.73;;;;;;;13.31;85.87;102429.13;5014895;28;20033;-66
2022/03/28 10:35:36;;;;;;;26.63;13.68;;;;;;;13.75;84.93;102416.34;5015254;28;20037;-66
2022/03/28 10:38:19;;;;;;;24.27;11.43;;;;;;;13.79;84.44;102418.22;5014605;28;20029;-67
2022/03/28 10:41:01;;;;;;;22.00;12.40;;;;;;;14.02;83.34;102409.16;5013409;28;20026;-67
2022/03/28 10:43:32;;;;;;;22.27;12.13;;;;;;;14.20;83.96;102408.75;5020402;28;20040;-70
2022/03/28 10:46:00;;;;;;;23.92;12.35;;;;;;;14.88;81.52;102411.41;5026625;28;20108;-70
2022/03/28 10:48:31;;;;;;;20.67;10.75;;;;;;;14.46;80.33;102402.41;5014040;28;20450;-69
2022/03/28 10:51:03;;;;;;;28.27;11.60;;;;;;;14.82;81.92;102408.59;5014036;28;20037;-70
2022/03/28 10:53:39;;;;;;;21.63;11.68;;;;;;;14.41;80.70;102409.31;5013318;28;20026;-69
2022/03/28 10:56:13;;;;;;;21.25;11.77;;;;;;;15.15;79.59;102400.56;5014062;28;20061;-70
2022/03/28 10:58:58;;;;;;;23.15;12.60;;;;;;;15.83;77.44;102396.69;5012822;28;20080;-70
2022/03/28 11:01:40;;;;;;;20.42;11.57;;;;;;;15.40;74.31;102394.91;5014395;28;20043;-70
2022/03/28 11:04:06;;;;;;;30.40;12.05;;;;;;;16.06;74.26;102387.38;5013989;28;20041;-70
2022/03/28 11:06:53;;;;;;;30.88;12.43;;;;;;;15.85;76.82;102387.00;5021568;28;20037;-71
2022/03/28 11:09:45;;;;;;;23.13;11.88;;;;;;;16.25;74.90;102378.91;5014099;28;20385;-70
2022/03/28 11:12:18;;;;;;;22.35;12.07;;;;;;;16.46;74.76;102380.13;5013695;28;20026;-71
2022/03/28 11:14:49;;;;;;;25.23;11.48;;;;;;;16.42;76.01;102376.50;5013406;28;20032;-71
2022/03/28 11:17:59;;;;;;;24.48;11.90;;;;;;;17.05;72.63;102386.38;5013488;28;20057;-71